sensor_id;sensor_type;location;lat;lon;timestamp;temperature;humidity
1992;DHT22;997;48.448;8.924;2023-12-20T00:02:20;6.70;99.90
1992;DHT22;997;48.448;8.924;2023-12-20T00:04:46;6.70;99.90
1992;DHT22;997;48.448;8.924;2023-12-20T00:07:12;6.70;99.90
1992;DHT22;997;48.448;8.924;2023-12-20T00:09:38;6.70;99.90
1992;DHT22;997;48.448;8.924;2023-12-20T00:12:04;6.70;99.90
1992;DHT22;997;48.448;8.924;2023-12-20T00:14:29;6.80;99.90
1992;DHT22;997;48.448;8.924;2023-12-20T00:16:55;6.90;99.90
1992;DHT22;997;48.448;8.924;2023-12-20T00:19:21;7.00;99.90
1992;DHT22;997;48.448;8.924;2023-12-20T00:21:47;7.00;99.90
1992;DHT22;997;48.448;8.924;2023-12-20T00:24:12;7.10;99.90
1992;DHT22;997;48.448;8.924;2023-12-20T00:26:38;7.00;99.90
1992;DHT22;997;48.448;8.924;2023-12-20T00:29:04;7.00;99.90
1992;DHT22;997;48.448;8.924;2023-12-20T00:31:29;7.00;99.90
1992;DHT22;997;48.448;8.924;2023-12-20T00:33:55;7.10;99.90
1992;DHT22;997;48.448;8.924;2023-12-20T00:36:21;7.10;99.90
1992;DHT22;997;48.448;8.924;2023-12-20T00:38:48;7.10;99.90
1992;DHT22;997;48.448;8.924;2023-12-20T00:41:13;7.10;99.90
1992;DHT22;997;48.448;8.924;2023-12-20T00:43:39;7.10;99.90
1992;DHT22;997;48.448;8.924;2023-12-20T00:46:05;7.00;99.90
1992;DHT22;997;48.448;8.924;2023-12-20T00:48:31;7.00;99.90
1992;DHT22;997;48.448;8.924;2023-12-20T00:50:57;7.10;99.90
1992;DHT22;997;48.448;8.924;2023-12-20T00:53:23;7.00;99.90
1992;DHT22;997;48.448;8.924;2023-12-20T00:55:49;7.00;99.90
1992;DHT22;997;48.448;8.924;2023-12-20T00:58:15;7.00;99.90
1992;DHT22;997;48.448;8.924;2023-12-20T01:00:41;6.90;99.90
1992;DHT22;997;48.448;8.924;2023-12-20T01:03:08;6.80;99.90
1992;DHT22;997;48.448;8.924;2023-12-20T01:05:34;6.70;99.90
1992;DHT22;997;48.448;8.924;2023-12-20T01:08:01;6.80;99.90
1992;DHT22;997;48.448;8.924;2023-12-20T01:10:28;6.80;99.90
1992;DHT22;997;48.448;8.924;2023-12-20T01:12:55;6.70;99.90
1992;DHT22;997;48.448;8.924;2023-12-20T01:15:21;6.60;99.90
1992;DHT22;997;48.448;8.924;2023-12-20T01:17:47;6.40;99.90
1992;DHT22;997;48.448;8.924;2023-12-20T01:20:13;6.40;99.90
1992;DHT22;997;48.448;8.924;2023-12-20T01:22:39;6.30;99.90
1992;DHT22;997;48.448;8.924;2023-12-20T01:25:05;6.30;99.90
1992;DHT22;997;48.448;8.924;2023-12-20T01:27:30;6.30;99.90
1992;DHT22;997;48.448;8.924;2023-12-20T01:29:57;6.40;99.90
1992;DHT22;997;48.448;8.924;2023-12-20T01:32:23;6.20;99.90
1992;DHT22;997;48.448;8.924;2023-12-20T01:34:56;6.20;99.90
1992;DHT22;997;48.448;8.924;2023-12-20T01:43:59;6.20;99.90
1992;DHT22;997;48.448;8.924;2023-12-20T01:46:32;6.20;99.90
1992;DHT22;997;48.448;8.924;2023-12-20T01:48:58;6.20;99.90
1992;DHT22;997;48.448;8.924;2023-12-20T01:51:25;6.10;99.90
1992;DHT22;997;48.448;8.924;2023-12-20T01:53:55;6.10;99.90
1992;DHT22;997;48.448;8.924;2023-12-20T01:56:22;6.20;99.90
1992;DHT22;997;48.448;8.924;2023-12-20T01:58:48;6.10;99.90
1992;DHT22;997;48.448;8.924;2023-12-20T02:01:15;6.10;99.90
1992;DHT22;997;48.448;8.924;2023-12-20T02:03:41;6.30;99.90
1992;DHT22;997;48.448;8.924;2023-12-20T02:06:08;6.30;99.90
1992;DHT22;997;48.448;8.924;2023-12-20T02:08:34;6.20;99.90
1992;DHT22;997;48.448;8.924;2023-12-20T02:11:00;6.20;99.90
1992;DHT22;997;48.448;8.924;2023-12-20T02:13:26;6.30;99.90
1992;DHT22;997;48.448;8.924;2023-12-20T02:15:53;6.30;99.90
1992;DHT22;997;48.448;8.924;2023-12-20T02:18:19;6.40;99.90
1992;DHT22;997;48.448;8.924;2023-12-20T02:20:45;6.40;99.90
1992;DHT22;997;48.448;8.924;2023-12-20T02:23:11;6.30;99.90
1992;DHT22;997;48.448;8.924;2023-12-20T02:25:39;6.30;99.90
1992;DHT22;997;48.448;8.924;2023-12-20T02:28:05;6.30;99.90
1992;DHT22;997;48.448;8.924;2023-12-20T02:30:34;6.30;99.90
1992;DHT22;997;48.448;8.924;2023-12-20T02:36:34;6.30;99.90
1992;DHT22;997;48.448;8.924;2023-12-20T02:39:41;6.30;99.90
1992;DHT22;997;48.448;8.924;2023-12-20T02:42:14;6.20;99.90
1992;DHT22;997;48.448;8.924;2023-12-20T02:44:39;6.20;99.90
1992;DHT22;997;48.448;8.924;2023-12-20T02:47:32;6.10;99.90
1992;DHT22;997;48.448;8.924;2023-12-20T02:50:13;6.10;99.90
1992;DHT22;997;48.448;8.924;2023-12-20T02:52:49;6.10;99.90
1992;DHT22;997;48.448;8.924;2023-12-20T02:55:42;6.20;99.90
1992;DHT22;997;48.448;8.924;2023-12-20T02:58:15;6.30;99.90
1992;DHT22;997;48.448;8.924;2023-12-20T03:00:58;6.30;99.90
1992;DHT22;997;48.448;8.924;2023-12-20T03:03:50;6.30;99.90
1992;DHT22;997;48.448;8.924;2023-12-20T03:06:33;6.40;99.90
1992;DHT22;997;48.448;8.924;2023-12-20T03:09:08;6.40;99.90
1992;DHT22;997;48.448;8.924;2023-12-20T03:11:43;6.40;99.90
1992;DHT22;997;48.448;8.924;2023-12-20T03:14:12;6.30;99.90
1992;DHT22;997;48.448;8.924;2023-12-20T03:16:38;6.20;99.90
1992;DHT22;997;48.448;8.924;2023-12-20T03:19:04;6.20;99.90
1992;DHT22;997;48.448;8.924;2023-12-20T03:21:29;6.20;99.90
1992;DHT22;997;48.448;8.924;2023-12-20T03:23:55;6.20;99.90
1992;DHT22;997;48.448;8.924;2023-12-20T03:26:21;6.10;99.90
1992;DHT22;997;48.448;8.924;2023-12-20T03:28:47;6.00;99.90
1992;DHT22;997;48.448;8.924;2023-12-20T03:31:14;6.10;99.90
1992;DHT22;997;48.448;8.924;2023-12-20T03:33:40;6.10;99.90
1992;DHT22;997;48.448;8.924;2023-12-20T03:36:06;6.20;99.90
1992;DHT22;997;48.448;8.924;2023-12-20T03:38:32;6.20;99.90
1992;DHT22;997;48.448;8.924;2023-12-20T03:40:58;6.20;99.90
1992;DHT22;997;48.448;8.924;2023-12-20T03:43:23;6.20;99.90
1992;DHT22;997;48.448;8.924;2023-12-20T03:45:49;6.30;99.90
1992;DHT22;997;48.448;8.924;2023-12-20T03:48:15;6.30;99.90
1992;DHT22;997;48.448;8.924;2023-12-20T03:50:41;6.30;99.90
1992;DHT22;997;48.448;8.924;2023-12-20T03:53:07;6.40;99.90
1992;DHT22;997;48.448;8.924;2023-12-20T03:55:33;6.40;99.90
1992;DHT22;997;48.448;8.924;2023-12-20T03:57:59;6.30;99.90
1992;DHT22;997;48.448;8.924;2023-12-20T04:00:26;6.20;99.90
1992;DHT22;997;48.448;8.924;2023-12-20T04:02:55;6.10;99.90
1992;DHT22;997;48.448;8.924;2023-12-20T04:05:33;6.10;99.90
1992;DHT22;997;48.448;8.924;2023-12-20T04:08:40;6.10;99.90
1992;DHT22;997;48.448;8.924;2023-12-20T04:11:42;6.00;99.90
1992;DHT22;997;48.448;8.924;2023-12-20T04:14:14;6.00;99.90
1992;DHT22;997;48.448;8.924;2023-12-20T04:17:33;6.00;99.90
1992;DHT22;997;48.448;8.924;2023-12-20T04:20:39;5.90;99.90
1992;DHT22;997;48.448;8.924;2023-12-20T04:23:20;5.90;99.90
1992;DHT22;997;48.448;8.924;2023-12-20T04:25:49;6.00;99.90
1992;DHT22;997;48.448;8.924;2023-12-20T04:28:17;5.80;99.90
1992;DHT22;997;48.448;8.924;2023-12-20T04:30:52;5.70;99.90
1992;DHT22;997;48.448;8.924;2023-12-20T04:33:44;5.80;99.90
1992;DHT22;997;48.448;8.924;2023-12-20T04:37:14;5.90;99.90
1992;DHT22;997;48.448;8.924;2023-12-20T04:46:18;6.10;99.90
1992;DHT22;997;48.448;8.924;2023-12-20T04:48:45;6.10;99.90
1992;DHT22;997;48.448;8.924;2023-12-20T04:51:10;6.30;99.90
1992;DHT22;997;48.448;8.924;2023-12-20T04:53:37;6.40;99.90
1992;DHT22;997;48.448;8.924;2023-12-20T04:56:03;6.30;99.90
1992;DHT22;997;48.448;8.924;2023-12-20T04:58:30;6.20;99.90
1992;DHT22;997;48.448;8.924;2023-12-20T05:00:55;6.20;99.90
1992;DHT22;997;48.448;8.924;2023-12-20T05:03:21;6.20;99.90
1992;DHT22;997;48.448;8.924;2023-12-20T05:05:47;6.20;99.90
1992;DHT22;997;48.448;8.924;2023-12-20T05:08:13;6.10;99.90
1992;DHT22;997;48.448;8.924;2023-12-20T05:10:39;6.00;99.90
1992;DHT22;997;48.448;8.924;2023-12-20T05:13:05;5.90;99.90
1992;DHT22;997;48.448;8.924;2023-12-20T05:15:31;5.90;99.90
1992;DHT22;997;48.448;8.924;2023-12-20T05:17:57;6.00;99.90
1992;DHT22;997;48.448;8.924;2023-12-20T05:20:23;5.80;99.90
1992;DHT22;997;48.448;8.924;2023-12-20T05:22:49;5.70;99.90
1992;DHT22;997;48.448;8.924;2023-12-20T05:25:14;5.70;99.90
1992;DHT22;997;48.448;8.924;2023-12-20T05:27:40;5.60;99.90
1992;DHT22;997;48.448;8.924;2023-12-20T05:30:07;5.50;99.90
1992;DHT22;997;48.448;8.924;2023-12-20T05:32:32;5.60;99.90
1992;DHT22;997;48.448;8.924;2023-12-20T05:34:58;5.60;99.90
1992;DHT22;997;48.448;8.924;2023-12-20T05:37:24;5.60;99.90
1992;DHT22;997;48.448;8.924;2023-12-20T05:39:49;5.60;99.90
1992;DHT22;997;48.448;8.924;2023-12-20T05:42:15;5.60;99.90
1992;DHT22;997;48.448;8.924;2023-12-20T05:44:41;5.50;99.90
1992;DHT22;997;48.448;8.924;2023-12-20T05:47:07;5.50;99.90
1992;DHT22;997;48.448;8.924;2023-12-20T05:49:33;5.50;99.90
1992;DHT22;997;48.448;8.924;2023-12-20T05:51:59;5.50;99.90
1992;DHT22;997;48.448;8.924;2023-12-20T05:54:25;5.50;99.90
1992;DHT22;997;48.448;8.924;2023-12-20T05:56:51;5.40;99.90
1992;DHT22;997;48.448;8.924;2023-12-20T05:59:17;5.40;99.90
1992;DHT22;997;48.448;8.924;2023-12-20T06:01:43;5.50;99.90
1992;DHT22;997;48.448;8.924;2023-12-20T06:04:09;5.50;99.90
1992;DHT22;997;48.448;8.924;2023-12-20T06:06:40;5.50;99.90
1992;DHT22;997;48.448;8.924;2023-12-20T06:09:06;5.60;99.90
1992;DHT22;997;48.448;8.924;2023-12-20T06:11:32;5.60;99.90
1992;DHT22;997;48.448;8.924;2023-12-20T06:13:58;5.60;99.90
1992;DHT22;997;48.448;8.924;2023-12-20T06:16:23;5.70;99.90
1992;DHT22;997;48.448;8.924;2023-12-20T06:18:49;5.80;99.90
1992;DHT22;997;48.448;8.924;2023-12-20T06:21:15;5.80;99.90
1992;DHT22;997;48.448;8.924;2023-12-20T06:23:41;5.90;99.90
1992;DHT22;997;48.448;8.924;2023-12-20T06:26:07;5.90;99.90
1992;DHT22;997;48.448;8.924;2023-12-20T06:28:32;6.00;99.90
1992;DHT22;997;48.448;8.924;2023-12-20T06:30:58;6.00;99.90
1992;DHT22;997;48.448;8.924;2023-12-20T06:33:26;6.00;99.90
1992;DHT22;997;48.448;8.924;2023-12-20T06:35:51;6.00;99.90
1992;DHT22;997;48.448;8.924;2023-12-20T06:38:18;6.00;99.90
1992;DHT22;997;48.448;8.924;2023-12-20T06:40:44;6.00;99.90
1992;DHT22;997;48.448;8.924;2023-12-20T06:43:11;6.00;99.90
1992;DHT22;997;48.448;8.924;2023-12-20T06:45:37;6.00;99.90
1992;DHT22;997;48.448;8.924;2023-12-20T06:48:03;6.20;99.90
1992;DHT22;997;48.448;8.924;2023-12-20T06:50:29;6.20;99.90
1992;DHT22;997;48.448;8.924;2023-12-20T06:52:55;6.30;99.90
1992;DHT22;997;48.448;8.924;2023-12-20T06:55:20;6.30;99.90
1992;DHT22;997;48.448;8.924;2023-12-20T06:57:46;6.30;99.90
1992;DHT22;997;48.448;8.924;2023-12-20T07:00:12;6.30;99.90
1992;DHT22;997;48.448;8.924;2023-12-20T07:02:40;6.30;99.90
1992;DHT22;997;48.448;8.924;2023-12-20T07:05:06;6.20;99.90
1992;DHT22;997;48.448;8.924;2023-12-20T07:07:33;6.20;99.90
1992;DHT22;997;48.448;8.924;2023-12-20T07:09:59;6.20;99.90
1992;DHT22;997;48.448;8.924;2023-12-20T07:12:27;6.20;99.90
1992;DHT22;997;48.448;8.924;2023-12-20T07:14:53;6.20;99.90
1992;DHT22;997;48.448;8.924;2023-12-20T07:17:19;6.30;99.90
1992;DHT22;997;48.448;8.924;2023-12-20T07:19:50;6.30;99.90
1992;DHT22;997;48.448;8.924;2023-12-20T07:22:18;6.20;99.90
1992;DHT22;997;48.448;8.924;2023-12-20T07:24:46;6.20;99.90
1992;DHT22;997;48.448;8.924;2023-12-20T07:27:12;6.20;99.90
1992;DHT22;997;48.448;8.924;2023-12-20T07:29:39;6.30;99.90
1992;DHT22;997;48.448;8.924;2023-12-20T07:32:05;6.20;99.90
1992;DHT22;997;48.448;8.924;2023-12-20T07:34:30;6.20;99.90
1992;DHT22;997;48.448;8.924;2023-12-20T07:36:56;6.20;99.90
1992;DHT22;997;48.448;8.924;2023-12-20T07:39:21;6.20;99.90
1992;DHT22;997;48.448;8.924;2023-12-20T07:41:47;6.20;99.90
1992;DHT22;997;48.448;8.924;2023-12-20T07:44:13;6.20;99.90
1992;DHT22;997;48.448;8.924;2023-12-20T07:46:38;6.20;99.90
1992;DHT22;997;48.448;8.924;2023-12-20T07:49:05;6.30;99.90
1992;DHT22;997;48.448;8.924;2023-12-20T07:51:31;6.20;99.90
1992;DHT22;997;48.448;8.924;2023-12-20T07:53:56;6.20;99.90
1992;DHT22;997;48.448;8.924;2023-12-20T07:56:22;6.30;99.90
1992;DHT22;997;48.448;8.924;2023-12-20T07:58:47;6.30;99.90
1992;DHT22;997;48.448;8.924;2023-12-20T08:01:15;6.20;99.90
1992;DHT22;997;48.448;8.924;2023-12-20T08:03:41;6.20;99.90
1992;DHT22;997;48.448;8.924;2023-12-20T08:06:06;6.30;99.90
1992;DHT22;997;48.448;8.924;2023-12-20T08:08:32;6.30;99.90
1992;DHT22;997;48.448;8.924;2023-12-20T08:10:58;6.30;99.90
1992;DHT22;997;48.448;8.924;2023-12-20T08:13:25;6.40;99.90
1992;DHT22;997;48.448;8.924;2023-12-20T08:15:52;6.40;99.90
1992;DHT22;997;48.448;8.924;2023-12-20T08:18:18;6.50;99.90
1992;DHT22;997;48.448;8.924;2023-12-20T08:20:43;6.50;99.90
1992;DHT22;997;48.448;8.924;2023-12-20T08:23:09;6.60;99.90
1992;DHT22;997;48.448;8.924;2023-12-20T08:25:35;6.70;99.90
1992;DHT22;997;48.448;8.924;2023-12-20T08:28:04;6.60;99.90
1992;DHT22;997;48.448;8.924;2023-12-20T08:30:30;6.60;99.90
1992;DHT22;997;48.448;8.924;2023-12-20T08:32:57;6.60;99.90
1992;DHT22;997;48.448;8.924;2023-12-20T08:35:22;6.60;99.90
1992;DHT22;997;48.448;8.924;2023-12-20T08:37:49;6.60;99.90
1992;DHT22;997;48.448;8.924;2023-12-20T08:40:15;6.60;99.90
1992;DHT22;997;48.448;8.924;2023-12-20T08:42:40;6.60;99.90
1992;DHT22;997;48.448;8.924;2023-12-20T08:45:06;6.50;99.90
1992;DHT22;997;48.448;8.924;2023-12-20T08:47:32;6.60;99.90
1992;DHT22;997;48.448;8.924;2023-12-20T08:49:58;6.50;99.90
1992;DHT22;997;48.448;8.924;2023-12-20T08:52:25;6.60;99.90
1992;DHT22;997;48.448;8.924;2023-12-20T08:54:55;6.60;99.90
1992;DHT22;997;48.448;8.924;2023-12-20T08:57:20;6.50;99.90
1992;DHT22;997;48.448;8.924;2023-12-20T08:59:50;6.50;99.90
1992;DHT22;997;48.448;8.924;2023-12-20T09:02:16;6.30;99.90
1992;DHT22;997;48.448;8.924;2023-12-20T09:04:43;6.30;99.90
1992;DHT22;997;48.448;8.924;2023-12-20T09:07:25;6.20;99.90
1992;DHT22;997;48.448;8.924;2023-12-20T09:09:52;6.20;99.90
1992;DHT22;997;48.448;8.924;2023-12-20T09:12:18;6.10;99.90
1992;DHT22;997;48.448;8.924;2023-12-20T09:14:45;5.90;99.90
1992;DHT22;997;48.448;8.924;2023-12-20T09:17:11;5.70;99.90
1992;DHT22;997;48.448;8.924;2023-12-20T09:19:37;5.40;99.90
1992;DHT22;997;48.448;8.924;2023-12-20T09:22:04;5.20;99.90
1992;DHT22;997;48.448;8.924;2023-12-20T09:24:31;5.10;99.90
1992;DHT22;997;48.448;8.924;2023-12-20T09:26:56;5.10;99.90
1992;DHT22;997;48.448;8.924;2023-12-20T09:29:23;5.10;99.90
1992;DHT22;997;48.448;8.924;2023-12-20T09:31:56;5.20;99.90
1992;DHT22;997;48.448;8.924;2023-12-20T09:34:32;5.30;99.90
1992;DHT22;997;48.448;8.924;2023-12-20T09:36:58;5.50;99.90
1992;DHT22;997;48.448;8.924;2023-12-20T09:39:32;5.50;99.90
1992;DHT22;997;48.448;8.924;2023-12-20T09:42:07;5.40;99.90
1992;DHT22;997;48.448;8.924;2023-12-20T09:44:40;5.40;99.90
1992;DHT22;997;48.448;8.924;2023-12-20T09:50:08;5.40;99.90
1992;DHT22;997;48.448;8.924;2023-12-20T09:52:37;5.40;99.90
1992;DHT22;997;48.448;8.924;2023-12-20T09:55:05;5.30;99.90
1992;DHT22;997;48.448;8.924;2023-12-20T09:57:33;5.20;99.90
1992;DHT22;997;48.448;8.924;2023-12-20T09:59:59;5.10;99.90
1992;DHT22;997;48.448;8.924;2023-12-20T10:02:26;5.20;99.90
1992;DHT22;997;48.448;8.924;2023-12-20T10:04:54;5.20;99.90
1992;DHT22;997;48.448;8.924;2023-12-20T10:07:20;5.10;99.90
1992;DHT22;997;48.448;8.924;2023-12-20T10:09:47;5.20;99.90
1992;DHT22;997;48.448;8.924;2023-12-20T10:12:15;5.30;99.90
1992;DHT22;997;48.448;8.924;2023-12-20T10:14:41;5.30;99.90
1992;DHT22;997;48.448;8.924;2023-12-20T10:17:07;5.40;99.90
1992;DHT22;997;48.448;8.924;2023-12-20T10:19:38;5.60;99.90
1992;DHT22;997;48.448;8.924;2023-12-20T10:22:05;5.60;99.90
1992;DHT22;997;48.448;8.924;2023-12-20T11:23:57;5.80;99.90
1992;DHT22;997;48.448;8.924;2023-12-20T11:26:28;5.80;99.90
1992;DHT22;997;48.448;8.924;2023-12-20T11:29:05;5.80;99.90
1992;DHT22;997;48.448;8.924;2023-12-20T11:31:40;5.80;99.90
1992;DHT22;997;48.448;8.924;2023-12-20T11:34:13;5.90;99.90
1992;DHT22;997;48.448;8.924;2023-12-20T11:36:42;5.90;99.90
1992;DHT22;997;48.448;8.924;2023-12-20T11:39:08;5.90;99.90
1992;DHT22;997;48.448;8.924;2023-12-20T11:41:39;5.80;99.90
1992;DHT22;997;48.448;8.924;2023-12-20T11:44:07;5.80;99.90
1992;DHT22;997;48.448;8.924;2023-12-20T11:46:34;5.90;99.90
1992;DHT22;997;48.448;8.924;2023-12-20T11:49:01;5.90;99.90
1992;DHT22;997;48.448;8.924;2023-12-20T11:51:27;5.90;99.90
1992;DHT22;997;48.448;8.924;2023-12-20T11:53:53;6.00;99.90
1992;DHT22;997;48.448;8.924;2023-12-20T11:56:19;6.00;99.90
1992;DHT22;997;48.448;8.924;2023-12-20T11:58:45;6.00;99.90
1992;DHT22;997;48.448;8.924;2023-12-20T12:01:11;6.00;99.90
1992;DHT22;997;48.448;8.924;2023-12-20T12:03:38;5.80;99.90
1992;DHT22;997;48.448;8.924;2023-12-20T12:06:04;5.70;99.90
1992;DHT22;997;48.448;8.924;2023-12-20T12:08:30;5.70;99.90
1992;DHT22;997;48.448;8.924;2023-12-20T12:10:56;5.70;99.90
1992;DHT22;997;48.448;8.924;2023-12-20T12:13:22;5.80;99.90
1992;DHT22;997;48.448;8.924;2023-12-20T12:15:48;5.80;99.90
1992;DHT22;997;48.448;8.924;2023-12-20T12:18:16;5.90;99.90
1992;DHT22;997;48.448;8.924;2023-12-20T12:20:42;5.80;99.90
1992;DHT22;997;48.448;8.924;2023-12-20T12:23:08;5.90;99.90
1992;DHT22;997;48.448;8.924;2023-12-20T12:25:37;5.80;99.90
1992;DHT22;997;48.448;8.924;2023-12-20T12:28:03;5.90;99.90
1992;DHT22;997;48.448;8.924;2023-12-20T12:30:30;5.90;99.90
1992;DHT22;997;48.448;8.924;2023-12-20T12:32:56;6.10;99.90
1992;DHT22;997;48.448;8.924;2023-12-20T12:35:23;6.20;99.90
1992;DHT22;997;48.448;8.924;2023-12-20T12:37:48;6.20;99.90
1992;DHT22;997;48.448;8.924;2023-12-20T12:40:16;6.20;99.90
1992;DHT22;997;48.448;8.924;2023-12-20T12:42:43;6.00;99.90
1992;DHT22;997;48.448;8.924;2023-12-20T12:45:09;6.00;99.90
1992;DHT22;997;48.448;8.924;2023-12-20T12:47:37;5.90;99.90
1992;DHT22;997;48.448;8.924;2023-12-20T12:50:03;5.90;99.90
1992;DHT22;997;48.448;8.924;2023-12-20T12:52:30;5.90;99.90
1992;DHT22;997;48.448;8.924;2023-12-20T12:54:56;5.90;99.90
1992;DHT22;997;48.448;8.924;2023-12-20T12:57:22;5.80;99.90
1992;DHT22;997;48.448;8.924;2023-12-20T12:59:47;5.80;99.90
1992;DHT22;997;48.448;8.924;2023-12-20T13:02:14;5.80;99.90
1992;DHT22;997;48.448;8.924;2023-12-20T13:04:41;5.80;99.90
1992;DHT22;997;48.448;8.924;2023-12-20T13:07:15;5.90;99.90
1992;DHT22;997;48.448;8.924;2023-12-20T13:09:44;5.80;99.90
1992;DHT22;997;48.448;8.924;2023-12-20T13:12:13;5.90;99.90
1992;DHT22;997;48.448;8.924;2023-12-20T13:14:39;6.00;99.90
1992;DHT22;997;48.448;8.924;2023-12-20T13:17:09;6.10;99.90
1992;DHT22;997;48.448;8.924;2023-12-20T13:19:35;6.20;99.90
1992;DHT22;997;48.448;8.924;2023-12-20T13:22:00;6.10;99.90
1992;DHT22;997;48.448;8.924;2023-12-20T13:24:27;6.10;99.90
1992;DHT22;997;48.448;8.924;2023-12-20T13:26:56;6.10;99.90
1992;DHT22;997;48.448;8.924;2023-12-20T13:29:24;6.10;99.90
1992;DHT22;997;48.448;8.924;2023-12-20T13:31:51;6.10;99.90
1992;DHT22;997;48.448;8.924;2023-12-20T13:34:17;6.10;99.90
1992;DHT22;997;48.448;8.924;2023-12-20T13:36:46;6.10;99.90
1992;DHT22;997;48.448;8.924;2023-12-20T13:39:13;6.00;99.90
1992;DHT22;997;48.448;8.924;2023-12-20T13:41:39;6.10;99.90
1992;DHT22;997;48.448;8.924;2023-12-20T13:44:05;6.10;99.90
1992;DHT22;997;48.448;8.924;2023-12-20T13:46:31;6.10;99.90
1992;DHT22;997;48.448;8.924;2023-12-20T13:48:57;6.20;99.90
1992;DHT22;997;48.448;8.924;2023-12-20T13:51:22;6.20;99.90
1992;DHT22;997;48.448;8.924;2023-12-20T13:53:48;6.20;99.90
1992;DHT22;997;48.448;8.924;2023-12-20T13:56:17;6.30;99.90
1992;DHT22;997;48.448;8.924;2023-12-20T13:58:45;6.30;99.90
1992;DHT22;997;48.448;8.924;2023-12-20T14:01:12;6.30;99.90
1992;DHT22;997;48.448;8.924;2023-12-20T14:03:38;6.20;99.90
1992;DHT22;997;48.448;8.924;2023-12-20T14:06:04;6.20;99.90
1992;DHT22;997;48.448;8.924;2023-12-20T14:08:29;6.30;99.90
1992;DHT22;997;48.448;8.924;2023-12-20T14:10:58;6.00;99.90
1992;DHT22;997;48.448;8.924;2023-12-20T14:13:26;6.00;99.90
1992;DHT22;997;48.448;8.924;2023-12-20T14:15:53;5.90;99.90
1992;DHT22;997;48.448;8.924;2023-12-20T14:18:20;5.90;99.90
1992;DHT22;997;48.448;8.924;2023-12-20T14:20:46;5.90;99.90
1992;DHT22;997;48.448;8.924;2023-12-20T14:23:13;5.80;99.90
1992;DHT22;997;48.448;8.924;2023-12-20T14:25:42;5.80;99.90
1992;DHT22;997;48.448;8.924;2023-12-20T14:28:08;5.80;99.90
1992;DHT22;997;48.448;8.924;2023-12-20T14:30:38;5.80;99.90
1992;DHT22;997;48.448;8.924;2023-12-20T14:33:10;5.70;99.90
1992;DHT22;997;48.448;8.924;2023-12-20T14:35:39;5.80;99.90
1992;DHT22;997;48.448;8.924;2023-12-20T14:38:06;5.80;99.90
1992;DHT22;997;48.448;8.924;2023-12-20T14:40:32;5.80;99.90
1992;DHT22;997;48.448;8.924;2023-12-20T14:43:00;5.80;99.90
1992;DHT22;997;48.448;8.924;2023-12-20T14:45:29;5.70;99.90
1992;DHT22;997;48.448;8.924;2023-12-20T14:48:12;5.50;99.90
1992;DHT22;997;48.448;8.924;2023-12-20T14:50:39;5.30;99.90
1992;DHT22;997;48.448;8.924;2023-12-20T14:53:09;5.30;99.90
1992;DHT22;997;48.448;8.924;2023-12-20T14:55:35;5.20;99.90
1992;DHT22;997;48.448;8.924;2023-12-20T14:58:11;5.30;99.90
1992;DHT22;997;48.448;8.924;2023-12-20T15:00:38;5.20;99.90
1992;DHT22;997;48.448;8.924;2023-12-20T15:03:04;5.30;99.90
1992;DHT22;997;48.448;8.924;2023-12-20T15:05:32;5.20;99.90
1992;DHT22;997;48.448;8.924;2023-12-20T15:07:57;5.10;99.90
1992;DHT22;997;48.448;8.924;2023-12-20T15:10:23;5.10;99.90
1992;DHT22;997;48.448;8.924;2023-12-20T15:12:49;5.00;99.90
1992;DHT22;997;48.448;8.924;2023-12-20T15:15:14;5.00;99.90
1992;DHT22;997;48.448;8.924;2023-12-20T15:17:40;5.00;99.90
1992;DHT22;997;48.448;8.924;2023-12-20T15:20:06;4.90;99.90
1992;DHT22;997;48.448;8.924;2023-12-20T15:22:35;5.00;99.90
1992;DHT22;997;48.448;8.924;2023-12-20T15:25:01;4.90;99.90
1992;DHT22;997;48.448;8.924;2023-12-20T15:27:27;4.90;99.90
1992;DHT22;997;48.448;8.924;2023-12-20T15:29:53;4.80;99.90
1992;DHT22;997;48.448;8.924;2023-12-20T15:32:18;4.80;99.90
1992;DHT22;997;48.448;8.924;2023-12-20T15:34:45;4.90;99.90
1992;DHT22;997;48.448;8.924;2023-12-20T15:37:11;5.00;99.90
1992;DHT22;997;48.448;8.924;2023-12-20T15:39:36;4.90;99.90
1992;DHT22;997;48.448;8.924;2023-12-20T15:42:02;4.90;99.90
1992;DHT22;997;48.448;8.924;2023-12-20T15:44:28;4.80;99.90
1992;DHT22;997;48.448;8.924;2023-12-20T15:46:53;4.80;99.90
1992;DHT22;997;48.448;8.924;2023-12-20T15:49:19;4.80;99.90
1992;DHT22;997;48.448;8.924;2023-12-20T15:51:45;4.80;99.90
1992;DHT22;997;48.448;8.924;2023-12-20T15:54:11;4.70;99.90
1992;DHT22;997;48.448;8.924;2023-12-20T15:56:37;4.80;99.90
1992;DHT22;997;48.448;8.924;2023-12-20T15:59:06;4.80;99.90
1992;DHT22;997;48.448;8.924;2023-12-20T16:01:33;4.80;99.90
1992;DHT22;997;48.448;8.924;2023-12-20T16:04:01;4.80;99.90
1992;DHT22;997;48.448;8.924;2023-12-20T16:06:27;4.70;99.90
1992;DHT22;997;48.448;8.924;2023-12-20T16:08:53;4.60;99.90
1992;DHT22;997;48.448;8.924;2023-12-20T16:11:19;4.60;99.90
1992;DHT22;997;48.448;8.924;2023-12-20T16:13:45;4.60;99.90
1992;DHT22;997;48.448;8.924;2023-12-20T16:16:11;4.60;99.90
1992;DHT22;997;48.448;8.924;2023-12-20T16:18:37;4.70;99.90
1992;DHT22;997;48.448;8.924;2023-12-20T16:21:03;4.70;99.90
1992;DHT22;997;48.448;8.924;2023-12-20T16:23:30;4.60;99.90
1992;DHT22;997;48.448;8.924;2023-12-20T16:25:55;4.60;99.90
1992;DHT22;997;48.448;8.924;2023-12-20T16:28:21;4.60;99.90
1992;DHT22;997;48.448;8.924;2023-12-20T16:30:48;4.60;99.90
1992;DHT22;997;48.448;8.924;2023-12-20T16:33:13;4.60;99.90
1992;DHT22;997;48.448;8.924;2023-12-20T16:35:39;4.60;99.90
1992;DHT22;997;48.448;8.924;2023-12-20T16:38:05;4.60;99.90
1992;DHT22;997;48.448;8.924;2023-12-20T16:40:30;4.60;99.90
1992;DHT22;997;48.448;8.924;2023-12-20T16:42:56;4.50;99.90
1992;DHT22;997;48.448;8.924;2023-12-20T16:45:23;4.60;99.90
1992;DHT22;997;48.448;8.924;2023-12-20T16:47:49;4.50;99.90
1992;DHT22;997;48.448;8.924;2023-12-20T16:50:15;4.50;99.90
1992;DHT22;997;48.448;8.924;2023-12-20T16:52:41;4.60;99.90
1992;DHT22;997;48.448;8.924;2023-12-20T16:55:10;4.60;99.90
1992;DHT22;997;48.448;8.924;2023-12-20T16:57:37;4.60;99.90
1992;DHT22;997;48.448;8.924;2023-12-20T17:00:03;4.60;99.90
1992;DHT22;997;48.448;8.924;2023-12-20T17:02:29;4.60;99.90
1992;DHT22;997;48.448;8.924;2023-12-20T17:04:55;4.60;99.90
1992;DHT22;997;48.448;8.924;2023-12-20T17:07:21;4.60;99.90
1992;DHT22;997;48.448;8.924;2023-12-20T17:09:47;4.60;99.90
1992;DHT22;997;48.448;8.924;2023-12-20T17:12:14;4.60;99.90
1992;DHT22;997;48.448;8.924;2023-12-20T17:14:40;4.60;99.90
1992;DHT22;997;48.448;8.924;2023-12-20T17:17:06;4.50;99.90
1992;DHT22;997;48.448;8.924;2023-12-20T17:19:34;4.50;99.90
1992;DHT22;997;48.448;8.924;2023-12-20T17:22:00;4.60;99.90
1992;DHT22;997;48.448;8.924;2023-12-20T17:24:26;4.60;99.90
1992;DHT22;997;48.448;8.924;2023-12-20T17:26:52;4.50;99.90
1992;DHT22;997;48.448;8.924;2023-12-20T17:29:18;4.50;99.90
1992;DHT22;997;48.448;8.924;2023-12-20T17:31:44;4.40;99.90
1992;DHT22;997;48.448;8.924;2023-12-20T17:34:10;4.50;99.90
1992;DHT22;997;48.448;8.924;2023-12-20T17:36:40;4.50;99.90
1992;DHT22;997;48.448;8.924;2023-12-20T17:39:06;4.50;99.90
1992;DHT22;997;48.448;8.924;2023-12-20T17:41:32;4.50;99.90
1992;DHT22;997;48.448;8.924;2023-12-20T17:44:03;4.50;99.90
1992;DHT22;997;48.448;8.924;2023-12-20T17:46:29;4.60;99.90
1992;DHT22;997;48.448;8.924;2023-12-20T17:48:55;4.70;99.90
1992;DHT22;997;48.448;8.924;2023-12-20T17:51:21;4.70;99.90
1992;DHT22;997;48.448;8.924;2023-12-20T17:53:47;4.60;99.90
1992;DHT22;997;48.448;8.924;2023-12-20T17:56:15;4.70;99.90
1992;DHT22;997;48.448;8.924;2023-12-20T17:58:41;4.70;99.90